sensor_id;sensor_type;location;lat;lon;timestamp;temperature;humidity
46890;DHT22;32625;51.080;16.970;2023-01-05T00:01:49;9.40;99.90
46890;DHT22;32625;51.080;16.970;2023-01-05T00:04:16;9.30;99.90
46890;DHT22;32625;51.080;16.970;2023-01-05T00:06:43;9.20;99.90
46890;DHT22;32625;51.080;16.970;2023-01-05T00:09:14;9.20;99.90
46890;DHT22;32625;51.080;16.970;2023-01-05T00:11:41;9.20;99.90
46890;DHT22;32625;51.080;16.970;2023-01-05T00:14:29;9.10;99.90
46890;DHT22;32625;51.080;16.970;2023-01-05T00:17:18;9.20;99.90
46890;DHT22;32625;51.080;16.970;2023-01-05T00:20:05;9.20;99.90
46890;DHT22;32625;51.080;16.970;2023-01-05T00:22:52;9.10;99.90
46890;DHT22;32625;51.080;16.970;2023-01-05T00:25:22;9.10;99.90
46890;DHT22;32625;51.080;16.970;2023-01-05T00:27:50;9.10;99.90
46890;DHT22;32625;51.080;16.970;2023-01-05T00:30:24;9.20;99.90
46890;DHT22;32625;51.080;16.970;2023-01-05T00:32:52;9.30;99.90
46890;DHT22;32625;51.080;16.970;2023-01-05T00:35:20;9.30;99.90
46890;DHT22;32625;51.080;16.970;2023-01-05T00:37:48;9.30;99.90
46890;DHT22;32625;51.080;16.970;2023-01-05T00:40:18;9.30;99.90
46890;DHT22;32625;51.080;16.970;2023-01-05T00:42:45;9.40;99.90
46890;DHT22;32625;51.080;16.970;2023-01-05T00:45:15;9.40;99.90
46890;DHT22;32625;51.080;16.970;2023-01-05T00:47:43;9.40;99.90
46890;DHT22;32625;51.080;16.970;2023-01-05T00:50:14;9.50;99.90
46890;DHT22;32625;51.080;16.970;2023-01-05T00:52:41;9.50;99.90
46890;DHT22;32625;51.080;16.970;2023-01-05T00:55:09;9.50;99.90
46890;DHT22;32625;51.080;16.970;2023-01-05T00:57:36;9.60;99.90
46890;DHT22;32625;51.080;16.970;2023-01-05T01:00:05;9.60;99.90
46890;DHT22;32625;51.080;16.970;2023-01-05T01:02:33;9.60;99.90
46890;DHT22;32625;51.080;16.970;2023-01-05T01:05:01;9.70;99.90
46890;DHT22;32625;51.080;16.970;2023-01-05T01:07:29;9.70;99.90
46890;DHT22;32625;51.080;16.970;2023-01-05T01:09:56;9.80;99.90
46890;DHT22;32625;51.080;16.970;2023-01-05T01:12:24;9.80;99.90
46890;DHT22;32625;51.080;16.970;2023-01-05T01:14:51;9.90;99.90
46890;DHT22;32625;51.080;16.970;2023-01-05T01:17:18;10.00;99.90
46890;DHT22;32625;51.080;16.970;2023-01-05T01:19:45;10.00;99.90
46890;DHT22;32625;51.080;16.970;2023-01-05T01:22:12;10.00;99.90
46890;DHT22;32625;51.080;16.970;2023-01-05T01:24:40;10.10;99.90
46890;DHT22;32625;51.080;16.970;2023-01-05T01:27:07;10.10;99.90
46890;DHT22;32625;51.080;16.970;2023-01-05T01:29:34;10.10;99.90
46890;DHT22;32625;51.080;16.970;2023-01-05T01:32:01;10.10;99.90
46890;DHT22;32625;51.080;16.970;2023-01-05T01:34:28;10.10;99.90
46890;DHT22;32625;51.080;16.970;2023-01-05T01:36:57;10.10;99.90
46890;DHT22;32625;51.080;16.970;2023-01-05T01:39:29;10.20;99.90
46890;DHT22;32625;51.080;16.970;2023-01-05T01:42:02;10.20;99.90
46890;DHT22;32625;51.080;16.970;2023-01-05T01:47:31;10.40;99.90
46890;DHT22;32625;51.080;16.970;2023-01-05T01:50:52;10.40;99.90
46890;DHT22;32625;51.080;16.970;2023-01-05T01:52:57;10.40;99.90
46890;DHT22;32625;51.080;16.970;2023-01-05T01:55:27;10.30;99.90
46890;DHT22;32625;51.080;16.970;2023-01-05T01:57:55;10.20;99.90
46890;DHT22;32625;51.080;16.970;2023-01-05T02:00:23;10.20;99.90
46890;DHT22;32625;51.080;16.970;2023-01-05T02:02:53;10.30;99.90
46890;DHT22;32625;51.080;16.970;2023-01-05T02:05:26;10.20;99.90
46890;DHT22;32625;51.080;16.970;2023-01-05T02:07:55;10.20;99.90
46890;DHT22;32625;51.080;16.970;2023-01-05T02:13:29;10.20;99.90
46890;DHT22;32625;51.080;16.970;2023-01-05T02:38:11;10.30;99.90
46890;DHT22;32625;51.080;16.970;2023-01-05T02:40:50;10.30;99.90
46890;DHT22;32625;51.080;16.970;2023-01-05T02:43:20;10.20;99.90
46890;DHT22;32625;51.080;16.970;2023-01-05T02:45:47;10.20;99.90
46890;DHT22;32625;51.080;16.970;2023-01-05T02:48:15;10.20;99.90
46890;DHT22;32625;51.080;16.970;2023-01-05T02:50:55;10.20;99.90
46890;DHT22;32625;51.080;16.970;2023-01-05T02:53:45;10.10;99.90
46890;DHT22;32625;51.080;16.970;2023-01-05T02:56:23;10.10;99.90
46890;DHT22;32625;51.080;16.970;2023-01-05T02:59:09;10.10;99.90
46890;DHT22;32625;51.080;16.970;2023-01-05T03:01:48;10.10;99.90
46890;DHT22;32625;51.080;16.970;2023-01-05T03:04:30;10.10;99.90
46890;DHT22;32625;51.080;16.970;2023-01-05T03:07:04;10.10;99.90
46890;DHT22;32625;51.080;16.970;2023-01-05T03:09:35;10.10;99.90
46890;DHT22;32625;51.080;16.970;2023-01-05T03:12:28;10.10;99.90
46890;DHT22;32625;51.080;16.970;2023-01-05T03:15:31;10.20;99.90
46890;DHT22;32625;51.080;16.970;2023-01-05T03:18:04;10.30;99.90
46890;DHT22;32625;51.080;16.970;2023-01-05T03:20:35;10.20;99.90
46890;DHT22;32625;51.080;16.970;2023-01-05T03:23:05;10.20;99.90
46890;DHT22;32625;51.080;16.970;2023-01-05T03:25:53;10.20;99.90
46890;DHT22;32625;51.080;16.970;2023-01-05T03:28:42;10.20;99.90
46890;DHT22;32625;51.080;16.970;2023-01-05T03:34:26;10.20;99.90
46890;DHT22;32625;51.080;16.970;2023-01-05T03:37:43;10.20;99.90
46890;DHT22;32625;51.080;16.970;2023-01-05T03:40:21;10.10;99.90
46890;DHT22;32625;51.080;16.970;2023-01-05T03:42:52;10.10;99.90
46890;DHT22;32625;51.080;16.970;2023-01-05T03:45:21;10.10;99.90
46890;DHT22;32625;51.080;16.970;2023-01-05T03:47:49;10.10;99.90
46890;DHT22;32625;51.080;16.970;2023-01-05T03:50:22;10.10;99.90
46890;DHT22;32625;51.080;16.970;2023-01-05T03:52:49;10.10;99.90
46890;DHT22;32625;51.080;16.970;2023-01-05T03:55:16;10.10;99.90
46890;DHT22;32625;51.080;16.970;2023-01-05T03:57:43;10.10;99.90
46890;DHT22;32625;51.080;16.970;2023-01-05T04:00:12;10.10;99.90
46890;DHT22;32625;51.080;16.970;2023-01-05T04:02:53;10.10;99.90
46890;DHT22;32625;51.080;16.970;2023-01-05T04:05:21;10.00;99.90
46890;DHT22;32625;51.080;16.970;2023-01-05T04:07:49;10.00;99.90
46890;DHT22;32625;51.080;16.970;2023-01-05T04:10:16;9.90;99.90
46890;DHT22;32625;51.080;16.970;2023-01-05T04:12:43;9.80;99.90
46890;DHT22;32625;51.080;16.970;2023-01-05T04:15:13;9.80;99.90
46890;DHT22;32625;51.080;16.970;2023-01-05T04:17:40;9.80;99.90
46890;DHT22;32625;51.080;16.970;2023-01-05T04:20:10;9.80;99.90
46890;DHT22;32625;51.080;16.970;2023-01-05T04:22:38;9.70;99.90
46890;DHT22;32625;51.080;16.970;2023-01-05T04:25:07;9.60;99.90
46890;DHT22;32625;51.080;16.970;2023-01-05T04:27:34;9.60;99.90
46890;DHT22;32625;51.080;16.970;2023-01-05T04:30:04;9.50;99.90
46890;DHT22;32625;51.080;16.970;2023-01-05T04:32:32;9.40;99.90
46890;DHT22;32625;51.080;16.970;2023-01-05T04:35:00;9.30;99.90
46890;DHT22;32625;51.080;16.970;2023-01-05T04:37:38;9.30;99.90
46890;DHT22;32625;51.080;16.970;2023-01-05T04:40:07;9.20;99.90
46890;DHT22;32625;51.080;16.970;2023-01-05T04:42:42;9.10;99.90
46890;DHT22;32625;51.080;16.970;2023-01-05T04:45:09;9.10;99.90
46890;DHT22;32625;51.080;16.970;2023-01-05T04:47:37;9.10;99.90
46890;DHT22;32625;51.080;16.970;2023-01-05T04:50:05;9.10;99.90
46890;DHT22;32625;51.080;16.970;2023-01-05T04:52:32;9.10;99.90
46890;DHT22;32625;51.080;16.970;2023-01-05T04:55:01;9.00;99.90
46890;DHT22;32625;51.080;16.970;2023-01-05T04:57:29;9.00;99.90
46890;DHT22;32625;51.080;16.970;2023-01-05T04:59:57;8.90;99.90
46890;DHT22;32625;51.080;16.970;2023-01-05T05:02:24;8.90;99.90
46890;DHT22;32625;51.080;16.970;2023-01-05T05:04:51;8.80;99.90
46890;DHT22;32625;51.080;16.970;2023-01-05T05:07:19;8.70;99.90
46890;DHT22;32625;51.080;16.970;2023-01-05T05:09:47;8.50;99.90
46890;DHT22;32625;51.080;16.970;2023-01-05T05:12:14;8.40;99.90
46890;DHT22;32625;51.080;16.970;2023-01-05T05:14:49;8.40;99.90
46890;DHT22;32625;51.080;16.970;2023-01-05T05:17:16;8.30;99.90
46890;DHT22;32625;51.080;16.970;2023-01-05T05:19:44;8.20;99.90
46890;DHT22;32625;51.080;16.970;2023-01-05T05:22:11;8.20;99.90
46890;DHT22;32625;51.080;16.970;2023-01-05T05:24:40;8.20;99.90
46890;DHT22;32625;51.080;16.970;2023-01-05T05:27:07;8.20;99.90
46890;DHT22;32625;51.080;16.970;2023-01-05T05:29:34;8.20;99.90
46890;DHT22;32625;51.080;16.970;2023-01-05T05:32:01;8.20;99.90
46890;DHT22;32625;51.080;16.970;2023-01-05T05:34:29;8.10;99.90
46890;DHT22;32625;51.080;16.970;2023-01-05T05:36:56;8.10;99.90
46890;DHT22;32625;51.080;16.970;2023-01-05T05:39:23;8.20;99.90
46890;DHT22;32625;51.080;16.970;2023-01-05T05:41:50;8.20;99.90
46890;DHT22;32625;51.080;16.970;2023-01-05T05:44:17;8.20;99.90
46890;DHT22;32625;51.080;16.970;2023-01-05T05:46:44;8.10;99.90
46890;DHT22;32625;51.080;16.970;2023-01-05T05:49:12;8.10;99.90
46890;DHT22;32625;51.080;16.970;2023-01-05T05:51:39;8.10;99.90
46890;DHT22;32625;51.080;16.970;2023-01-05T05:54:06;8.10;99.90
46890;DHT22;32625;51.080;16.970;2023-01-05T05:56:33;8.10;99.90
46890;DHT22;32625;51.080;16.970;2023-01-05T05:59:00;8.10;99.90
46890;DHT22;32625;51.080;16.970;2023-01-05T06:01:28;8.10;99.90
46890;DHT22;32625;51.080;16.970;2023-01-05T06:03:55;8.10;99.90
46890;DHT22;32625;51.080;16.970;2023-01-05T06:06:22;8.10;99.90
46890;DHT22;32625;51.080;16.970;2023-01-05T06:08:49;8.10;99.90
46890;DHT22;32625;51.080;16.970;2023-01-05T06:11:16;8.10;99.90
46890;DHT22;32625;51.080;16.970;2023-01-05T06:13:43;8.10;99.90
46890;DHT22;32625;51.080;16.970;2023-01-05T06:16:10;8.10;99.90
46890;DHT22;32625;51.080;16.970;2023-01-05T06:18:37;8.10;99.90
46890;DHT22;32625;51.080;16.970;2023-01-05T06:21:05;8.10;99.90
46890;DHT22;32625;51.080;16.970;2023-01-05T06:23:32;8.20;99.90
46890;DHT22;32625;51.080;16.970;2023-01-05T06:25:59;8.20;99.90
46890;DHT22;32625;51.080;16.970;2023-01-05T06:28:26;8.20;99.90
46890;DHT22;32625;51.080;16.970;2023-01-05T06:30:53;8.20;99.90
46890;DHT22;32625;51.080;16.970;2023-01-05T06:33:20;8.30;99.90
46890;DHT22;32625;51.080;16.970;2023-01-05T06:35:47;8.20;99.90
46890;DHT22;32625;51.080;16.970;2023-01-05T06:38:14;8.20;99.90
46890;DHT22;32625;51.080;16.970;2023-01-05T06:40:42;8.30;99.90
46890;DHT22;32625;51.080;16.970;2023-01-05T06:43:12;8.30;99.90
46890;DHT22;32625;51.080;16.970;2023-01-05T06:45:39;8.40;99.90
46890;DHT22;32625;51.080;16.970;2023-01-05T06:48:06;8.40;99.90
46890;DHT22;32625;51.080;16.970;2023-01-05T06:50:33;8.40;99.90
46890;DHT22;32625;51.080;16.970;2023-01-05T06:53:00;8.50;99.90
46890;DHT22;32625;51.080;16.970;2023-01-05T06:55:28;8.40;99.90
46890;DHT22;32625;51.080;16.970;2023-01-05T06:57:55;8.50;99.90
46890;DHT22;32625;51.080;16.970;2023-01-05T07:00:27;8.50;99.90
46890;DHT22;32625;51.080;16.970;2023-01-05T07:02:54;8.40;99.90
46890;DHT22;32625;51.080;16.970;2023-01-05T07:05:21;8.50;99.90
46890;DHT22;32625;51.080;16.970;2023-01-05T07:07:50;8.50;99.90
46890;DHT22;32625;51.080;16.970;2023-01-05T07:10:17;8.50;99.90
46890;DHT22;32625;51.080;16.970;2023-01-05T07:12:44;8.50;99.90
46890;DHT22;32625;51.080;16.970;2023-01-05T07:15:11;8.60;99.90
46890;DHT22;32625;51.080;16.970;2023-01-05T07:17:38;8.60;99.90
46890;DHT22;32625;51.080;16.970;2023-01-05T07:20:06;8.60;99.90
46890;DHT22;32625;51.080;16.970;2023-01-05T07:22:33;8.60;99.90
46890;DHT22;32625;51.080;16.970;2023-01-05T07:25:00;8.60;99.90
46890;DHT22;32625;51.080;16.970;2023-01-05T07:27:27;8.60;99.90
46890;DHT22;32625;51.080;16.970;2023-01-05T07:29:55;8.70;99.90
46890;DHT22;32625;51.080;16.970;2023-01-05T07:32:22;8.70;99.90
46890;DHT22;32625;51.080;16.970;2023-01-05T07:34:49;8.80;99.90
46890;DHT22;32625;51.080;16.970;2023-01-05T07:37:21;8.80;99.90
46890;DHT22;32625;51.080;16.970;2023-01-05T07:39:51;8.80;99.90
46890;DHT22;32625;51.080;16.970;2023-01-05T07:42:18;8.90;99.90
46890;DHT22;32625;51.080;16.970;2023-01-05T07:44:47;8.90;99.90
46890;DHT22;32625;51.080;16.970;2023-01-05T07:47:14;8.90;99.90
46890;DHT22;32625;51.080;16.970;2023-01-05T07:49:41;8.90;99.90
46890;DHT22;32625;51.080;16.970;2023-01-05T07:52:08;8.90;99.90
46890;DHT22;32625;51.080;16.970;2023-01-05T07:54:35;8.90;99.90
46890;DHT22;32625;51.080;16.970;2023-01-05T07:57:03;8.90;99.90
46890;DHT22;32625;51.080;16.970;2023-01-05T07:59:30;8.90;99.90
46890;DHT22;32625;51.080;16.970;2023-01-05T08:01:57;9.00;99.90
46890;DHT22;32625;51.080;16.970;2023-01-05T08:04:24;9.00;99.90
46890;DHT22;32625;51.080;16.970;2023-01-05T08:06:51;9.10;99.90
46890;DHT22;32625;51.080;16.970;2023-01-05T08:09:19;9.10;99.90
46890;DHT22;32625;51.080;16.970;2023-01-05T08:12:04;9.10;99.90
46890;DHT22;32625;51.080;16.970;2023-01-05T08:14:31;9.10;99.90
46890;DHT22;32625;51.080;16.970;2023-01-05T08:16:59;9.20;99.90
46890;DHT22;32625;51.080;16.970;2023-01-05T08:19:26;9.20;99.90
46890;DHT22;32625;51.080;16.970;2023-01-05T08:21:53;9.20;99.90
46890;DHT22;32625;51.080;16.970;2023-01-05T08:24:20;9.20;99.90
46890;DHT22;32625;51.080;16.970;2023-01-05T08:26:49;9.20;99.90
46890;DHT22;32625;51.080;16.970;2023-01-05T08:29:16;9.20;99.90
46890;DHT22;32625;51.080;16.970;2023-01-05T08:31:43;9.20;99.90
46890;DHT22;32625;51.080;16.970;2023-01-05T08:34:10;9.10;99.90
46890;DHT22;32625;51.080;16.970;2023-01-05T08:36:37;9.10;99.90
46890;DHT22;32625;51.080;16.970;2023-01-05T08:39:06;9.10;99.90
46890;DHT22;32625;51.080;16.970;2023-01-05T08:41:37;9.20;99.90
46890;DHT22;32625;51.080;16.970;2023-01-05T08:44:08;9.20;99.90
46890;DHT22;32625;51.080;16.970;2023-01-05T08:46:36;9.20;99.90
46890;DHT22;32625;51.080;16.970;2023-01-05T08:49:05;9.30;99.90
46890;DHT22;32625;51.080;16.970;2023-01-05T08:51:33;9.40;99.90
46890;DHT22;32625;51.080;16.970;2023-01-05T08:54:00;9.50;99.90
46890;DHT22;32625;51.080;16.970;2023-01-05T08:56:28;9.50;99.90
46890;DHT22;32625;51.080;16.970;2023-01-05T08:59:03;9.50;99.90
46890;DHT22;32625;51.080;16.970;2023-01-05T09:01:31;9.60;99.90
46890;DHT22;32625;51.080;16.970;2023-01-05T09:03:58;9.60;99.90
46890;DHT22;32625;51.080;16.970;2023-01-05T09:06:25;9.60;99.90
46890;DHT22;32625;51.080;16.970;2023-01-05T09:08:53;9.60;99.90
46890;DHT22;32625;51.080;16.970;2023-01-05T09:11:23;9.70;99.90
46890;DHT22;32625;51.080;16.970;2023-01-05T09:13:53;9.70;99.90
46890;DHT22;32625;51.080;16.970;2023-01-05T09:16:23;9.70;99.90
46890;DHT22;32625;51.080;16.970;2023-01-05T09:19:11;9.70;99.90
46890;DHT22;32625;51.080;16.970;2023-01-05T09:21:38;9.70;99.90
46890;DHT22;32625;51.080;16.970;2023-01-05T09:24:06;9.70;99.90
46890;DHT22;32625;51.080;16.970;2023-01-05T09:26:34;9.80;99.90
46890;DHT22;32625;51.080;16.970;2023-01-05T09:29:01;9.80;99.90
46890;DHT22;32625;51.080;16.970;2023-01-05T09:31:28;9.80;99.90
46890;DHT22;32625;51.080;16.970;2023-01-05T09:33:56;9.80;99.90
46890;DHT22;32625;51.080;16.970;2023-01-05T09:36:24;9.80;99.90
46890;DHT22;32625;51.080;16.970;2023-01-05T09:38:54;9.70;99.90
46890;DHT22;32625;51.080;16.970;2023-01-05T09:44:01;9.60;99.90
46890;DHT22;32625;51.080;16.970;2023-01-05T09:46:37;9.60;99.90
46890;DHT22;32625;51.080;16.970;2023-01-05T09:49:09;9.60;99.90
46890;DHT22;32625;51.080;16.970;2023-01-05T09:51:38;9.60;99.90
46890;DHT22;32625;51.080;16.970;2023-01-05T09:54:06;9.50;99.90
46890;DHT22;32625;51.080;16.970;2023-01-05T09:56:36;9.50;99.90
46890;DHT22;32625;51.080;16.970;2023-01-05T09:59:32;9.60;99.90
46890;DHT22;32625;51.080;16.970;2023-01-05T10:02:08;9.60;99.90
46890;DHT22;32625;51.080;16.970;2023-01-05T10:04:41;9.70;99.90
46890;DHT22;32625;51.080;16.970;2023-01-05T10:07:57;9.70;99.90
46890;DHT22;32625;51.080;16.970;2023-01-05T10:10:20;9.70;99.90
46890;DHT22;32625;51.080;16.970;2023-01-05T10:12:58;9.70;99.90
46890;DHT22;32625;51.080;16.970;2023-01-05T10:15:47;9.70;99.90
46890;DHT22;32625;51.080;16.970;2023-01-05T10:18:24;9.80;99.90
46890;DHT22;32625;51.080;16.970;2023-01-05T10:29:45;9.80;99.90
46890;DHT22;32625;51.080;16.970;2023-01-05T10:34:56;10.00;99.90
46890;DHT22;32625;51.080;16.970;2023-01-05T10:40:33;10.20;99.90
46890;DHT22;32625;51.080;16.970;2023-01-05T10:45:45;10.40;99.90
46890;DHT22;32625;51.080;16.970;2023-01-05T10:48:34;10.40;99.90
46890;DHT22;32625;51.080;16.970;2023-01-05T10:51:02;10.30;99.90
46890;DHT22;32625;51.080;16.970;2023-01-05T10:53:33;10.20;99.90
46890;DHT22;32625;51.080;16.970;2023-01-05T10:56:23;9.60;99.90
46890;DHT22;32625;51.080;16.970;2023-01-05T10:59:09;8.90;99.90
46890;DHT22;32625;51.080;16.970;2023-01-05T11:01:36;8.30;99.90
46890;DHT22;32625;51.080;16.970;2023-01-05T11:04:18;8.10;99.90
46890;DHT22;32625;51.080;16.970;2023-01-05T11:07:05;8.00;99.90
46890;DHT22;32625;51.080;16.970;2023-01-05T11:09:38;7.90;99.90
46890;DHT22;32625;51.080;16.970;2023-01-05T11:12:17;7.90;99.90
46890;DHT22;32625;51.080;16.970;2023-01-05T11:14:50;8.00;99.90
46890;DHT22;32625;51.080;16.970;2023-01-05T11:17:26;7.90;99.90
46890;DHT22;32625;51.080;16.970;2023-01-05T11:19:55;7.80;99.90
46890;DHT22;32625;51.080;16.970;2023-01-05T11:22:28;7.80;99.90
46890;DHT22;32625;51.080;16.970;2023-01-05T11:25:29;7.70;99.90
46890;DHT22;32625;51.080;16.970;2023-01-05T11:28:10;7.80;99.90
46890;DHT22;32625;51.080;16.970;2023-01-05T11:30:45;7.80;99.90
46890;DHT22;32625;51.080;16.970;2023-01-05T11:33:22;7.80;99.90
46890;DHT22;32625;51.080;16.970;2023-01-05T11:35:51;7.70;99.90
46890;DHT22;32625;51.080;16.970;2023-01-05T11:38:27;7.80;99.90
46890;DHT22;32625;51.080;16.970;2023-01-05T11:40:56;7.70;99.90
46890;DHT22;32625;51.080;16.970;2023-01-05T11:43:26;7.70;99.90
46890;DHT22;32625;51.080;16.970;2023-01-05T11:45:57;7.70;99.90
46890;DHT22;32625;51.080;16.970;2023-01-05T11:48:28;7.60;99.90
46890;DHT22;32625;51.080;16.970;2023-01-05T11:50:57;7.70;99.90
46890;DHT22;32625;51.080;16.970;2023-01-05T11:53:36;7.60;99.90
46890;DHT22;32625;51.080;16.970;2023-01-05T11:56:23;7.70;99.90
46890;DHT22;32625;51.080;16.970;2023-01-05T11:58:52;7.70;99.90
46890;DHT22;32625;51.080;16.970;2023-01-05T12:01:59;7.80;99.90
46890;DHT22;32625;51.080;16.970;2023-01-05T12:07:35;8.00;99.90
46890;DHT22;32625;51.080;16.970;2023-01-05T12:16:04;8.00;99.90
46890;DHT22;32625;51.080;16.970;2023-01-05T12:21:23;8.10;99.90
46890;DHT22;32625;51.080;16.970;2023-01-05T12:23:54;8.10;99.90
46890;DHT22;32625;51.080;16.970;2023-01-05T12:26:45;8.20;99.90
46890;DHT22;32625;51.080;16.970;2023-01-05T12:38:37;8.20;99.90
46890;DHT22;32625;51.080;16.970;2023-01-05T12:44:07;8.20;99.90
46890;DHT22;32625;51.080;16.970;2023-01-05T12:49:20;8.50;99.90
46890;DHT22;32625;51.080;16.970;2023-01-05T12:51:53;8.60;99.90
46890;DHT22;32625;51.080;16.970;2023-01-05T12:54:42;8.70;99.90
46890;DHT22;32625;51.080;16.970;2023-01-05T12:57:16;8.60;99.90
46890;DHT22;32625;51.080;16.970;2023-01-05T13:00:20;8.60;99.90
46890;DHT22;32625;51.080;16.970;2023-01-05T13:05:39;8.70;99.90
46890;DHT22;32625;51.080;16.970;2023-01-05T13:11:24;8.60;99.90
46890;DHT22;32625;51.080;16.970;2023-01-05T13:14:05;8.60;99.90
46890;DHT22;32625;51.080;16.970;2023-01-05T13:16:39;8.60;99.90
46890;DHT22;32625;51.080;16.970;2023-01-05T13:19:27;8.70;99.90
46890;DHT22;32625;51.080;16.970;2023-01-05T13:21:57;8.70;99.90
46890;DHT22;32625;51.080;16.970;2023-01-05T13:24:39;8.60;99.90
46890;DHT22;32625;51.080;16.970;2023-01-05T13:27:12;8.60;99.90
46890;DHT22;32625;51.080;16.970;2023-01-05T13:29:45;8.60;99.90
46890;DHT22;32625;51.080;16.970;2023-01-05T13:32:24;8.70;99.90
46890;DHT22;32625;51.080;16.970;2023-01-05T13:41:13;8.70;99.90
46890;DHT22;32625;51.080;16.970;2023-01-05T13:52:08;8.70;99.90
46890;DHT22;32625;51.080;16.970;2023-01-05T13:54:50;8.60;99.90
46890;DHT22;32625;51.080;16.970;2023-01-05T13:57:39;8.60;99.90
46890;DHT22;32625;51.080;16.970;2023-01-05T14:00:25;8.70;99.90
46890;DHT22;32625;51.080;16.970;2023-01-05T14:03:00;8.70;99.90
46890;DHT22;32625;51.080;16.970;2023-01-05T14:05:31;8.70;99.90
46890;DHT22;32625;51.080;16.970;2023-01-05T14:08:01;8.70;99.90
46890;DHT22;32625;51.080;16.970;2023-01-05T14:10:32;8.60;99.90
46890;DHT22;32625;51.080;16.970;2023-01-05T14:12:59;8.60;99.90
46890;DHT22;32625;51.080;16.970;2023-01-05T14:15:41;8.50;99.90
46890;DHT22;32625;51.080;16.970;2023-01-05T14:18:12;8.40;99.90
46890;DHT22;32625;51.080;16.970;2023-01-05T14:21:09;8.30;99.90
46890;DHT22;32625;51.080;16.970;2023-01-05T14:26:07;8.20;99.90
46890;DHT22;32625;51.080;16.970;2023-01-05T14:33:49;8.20;99.90
46890;DHT22;32625;51.080;16.970;2023-01-05T14:36:39;8.20;99.90
46890;DHT22;32625;51.080;16.970;2023-01-05T14:39:21;8.20;99.90
46890;DHT22;32625;51.080;16.970;2023-01-05T14:44:30;8.10;99.90
46890;DHT22;32625;51.080;16.970;2023-01-05T14:46:59;8.10;99.90
46890;DHT22;32625;51.080;16.970;2023-01-05T14:49:34;8.20;99.90
46890;DHT22;32625;51.080;16.970;2023-01-05T14:52:05;8.20;99.90
46890;DHT22;32625;51.080;16.970;2023-01-05T14:59:48;8.10;99.90
46890;DHT22;32625;51.080;16.970;2023-01-05T15:02:25;8.10;99.90
46890;DHT22;32625;51.080;16.970;2023-01-05T15:04:55;8.10;99.90
46890;DHT22;32625;51.080;16.970;2023-01-05T15:25:23;8.20;99.90
46890;DHT22;32625;51.080;16.970;2023-01-05T15:28:29;8.20;99.90
46890;DHT22;32625;51.080;16.970;2023-01-05T15:31:31;8.10;99.90
46890;DHT22;32625;51.080;16.970;2023-01-05T15:34:23;8.20;99.90
46890;DHT22;32625;51.080;16.970;2023-01-05T15:39:23;8.20;99.90
46890;DHT22;32625;51.080;16.970;2023-01-05T15:41:52;8.20;99.90
46890;DHT22;32625;51.080;16.970;2023-01-05T15:44:21;8.20;99.90
46890;DHT22;32625;51.080;16.970;2023-01-05T15:46:48;8.20;99.90
46890;DHT22;32625;51.080;16.970;2023-01-05T15:49:19;8.10;99.90
46890;DHT22;32625;51.080;16.970;2023-01-05T15:51:50;8.20;99.90
46890;DHT22;32625;51.080;16.970;2023-01-05T15:54:29;8.20;99.90
46890;DHT22;32625;51.080;16.970;2023-01-05T15:56:59;8.20;99.90
46890;DHT22;32625;51.080;16.970;2023-01-05T16:01:54;8.20;99.90
46890;DHT22;32625;51.080;16.970;2023-01-05T16:04:21;8.20;99.90
46890;DHT22;32625;51.080;16.970;2023-01-05T16:07:00;8.20;99.90
46890;DHT22;32625;51.080;16.970;2023-01-05T16:09:38;8.20;99.90
46890;DHT22;32625;51.080;16.970;2023-01-05T16:12:18;8.20;99.90
46890;DHT22;32625;51.080;16.970;2023-01-05T16:14:54;8.20;99.90
46890;DHT22;32625;51.080;16.970;2023-01-05T16:17:24;8.10;99.90
46890;DHT22;32625;51.080;16.970;2023-01-05T16:19:57;8.10;99.90
46890;DHT22;32625;51.080;16.970;2023-01-05T16:22:39;8.10;99.90
46890;DHT22;32625;51.080;16.970;2023-01-05T16:27:48;8.10;99.90
46890;DHT22;32625;51.080;16.970;2023-01-05T16:30:36;8.20;99.90
46890;DHT22;32625;51.080;16.970;2023-01-05T16:33:05;8.10;99.90
46890;DHT22;32625;51.080;16.970;2023-01-05T16:36:22;8.10;99.90
46890;DHT22;32625;51.080;16.970;2023-01-05T16:38:29;8.10;99.90
46890;DHT22;32625;51.080;16.970;2023-01-05T16:43:57;8.10;99.90
46890;DHT22;32625;51.080;16.970;2023-01-05T16:46:33;8.00;99.90
46890;DHT22;32625;51.080;16.970;2023-01-05T16:49:24;8.00;99.90
46890;DHT22;32625;51.080;16.970;2023-01-05T16:51:54;8.00;99.90
46890;DHT22;32625;51.080;16.970;2023-01-05T16:54:45;8.00;99.90
46890;DHT22;32625;51.080;16.970;2023-01-05T16:57:32;8.00;99.90
46890;DHT22;32625;51.080;16.970;2023-01-05T17:02:52;8.00;99.90
46890;DHT22;32625;51.080;16.970;2023-01-05T17:05:22;8.00;99.90
46890;DHT22;32625;51.080;16.970;2023-01-05T17:10:41;7.90;99.90
46890;DHT22;32625;51.080;16.970;2023-01-05T17:13:20;8.00;99.90
46890;DHT22;32625;51.080;16.970;2023-01-05T17:15:49;7.90;99.90
46890;DHT22;32625;51.080;16.970;2023-01-05T17:18:24;7.90;99.90
46890;DHT22;32625;51.080;16.970;2023-01-05T17:20:52;7.90;99.90
46890;DHT22;32625;51.080;16.970;2023-01-05T17:23:29;7.90;99.90
46890;DHT22;32625;51.080;16.970;2023-01-05T17:26:09;7.80;99.90
46890;DHT22;32625;51.080;16.970;2023-01-05T17:28:37;7.90;99.90
46890;DHT22;32625;51.080;16.970;2023-01-05T17:31:08;7.80;99.90
46890;DHT22;32625;51.080;16.970;2023-01-05T17:33:35;7.80;99.90
46890;DHT22;32625;51.080;16.970;2023-01-05T17:36:03;7.80;99.90
46890;DHT22;32625;51.080;16.970;2023-01-05T17:38:30;7.80;99.90
46890;DHT22;32625;51.080;16.970;2023-01-05T17:40:57;7.80;99.90
46890;DHT22;32625;51.080;16.970;2023-01-05T17:43:24;7.80;99.90
46890;DHT22;32625;51.080;16.970;2023-01-05T17:45:52;7.80;99.90
46890;DHT22;32625;51.080;16.970;2023-01-05T17:48:19;7.80;99.90
46890;DHT22;32625;51.080;16.970;2023-01-05T17:50:46;7.90;99.90
46890;DHT22;32625;51.080;16.970;2023-01-05T17:53:14;7.90;99.90
46890;DHT22;32625;51.080;16.970;2023-01-05T17:55:41;7.90;99.90
46890;DHT22;32625;51.080;16.970;2023-01-05T17:58:11;7.90;99.90
46890;DHT22;32625;51.080;16.970;2023-01-05T18:00:40;7.90;99.90
46890;DHT22;32625;51.080;16.970;2023-01-05T18:03:12;7.90;99.90
46890;DHT22;32625;51.080;16.970;2023-01-05T18:05:42;7.90;99.90
46890;DHT22;32625;51.080;16.970;2023-01-05T18:08:10;7.90;99.90
46890;DHT22;32625;51.080;16.970;2023-01-05T18:10:38;7.90;99.90
46890;DHT22;32625;51.080;16.970;2023-01-05T18:13:11;7.90;99.90
46890;DHT22;32625;51.080;16.970;2023-01-05T18:15:43;7.90;99.90
46890;DHT22;32625;51.080;16.970;2023-01-05T18:18:11;8.00;99.90
46890;DHT22;32625;51.080;16.970;2023-01-05T18:20:40;8.00;99.90
46890;DHT22;32625;51.080;16.970;2023-01-05T18:23:08;8.00;99.90
46890;DHT22;32625;51.080;16.970;2023-01-05T18:25:37;7.90;99.90
46890;DHT22;32625;51.080;16.970;2023-01-05T18:28:05;7.90;99.90